Time;durP1;ratioP1;P1;durP2;ratioP2;P2;SDS_P1;SDS_P2;PMS_P1;PMS_P2;Temp;Humidity;BMP_temperature;BMP_pressure;BME280_temperature;BME280_humidity;BME280_pressure;Samples;Min_cycle;Max_cycle;Signal;HPM_P1;HPM_P2
2021/05/05 00:02:15;;;;;;;6.40;3.15;;;;;;;;;;4881222;29;20029;-81
2021/05/05 00:04:42;;;;;;;9.02;3.22;;;;;;;;;;4882087;29;20093;-80
2021/05/05 00:07:08;;;;;;;10.00;3.45;;;;;;;;;;4883270;29;20039;-81
2021/05/05 00:09:34;;;;;;;6.53;3.10;;;;;;;;;;4882599;29;20064;-82
2021/05/05 00:12:00;;;;;;;6.55;2.90;;;;;;;;;;4882819;29;20029;-82
2021/05/05 00:14:26;;;;;;;5.82;2.97;;;;;;;;;;4881412;29;20464;-82
2021/05/05 00:16:52;;;;;;;6.65;3.13;;;;;;;;;;4881491;29;20064;-81
2021/05/05 00:19:19;;;;;;;6.85;3.50;;;;;;;;;;4880710;29;20029;-82
2021/05/05 00:21:45;;;;;;;5.82;3.63;;;;;;;;;;4880372;29;20087;-81
2021/05/05 00:24:12;;;;;;;6.20;3.15;;;;;;;;;;4881440;29;20059;-81
2021/05/05 00:26:38;;;;;;;6.20;3.38;;;;;;;;;;4881212;29;20044;-81
2021/05/05 00:29:05;;;;;;;6.53;3.50;;;;;;;;;;4881115;29;20057;-80
2021/05/05 00:31:31;;;;;;;7.32;3.28;;;;;;;;;;4881398;29;20039;-82
2021/05/05 00:33:58;;;;;;;6.03;3.17;;;;;;;;;;4880664;29;20080;-81
2021/05/05 00:36:24;;;;;;;7.53;2.92;;;;;;;;;;4880597;29;20490;-80
2021/05/05 00:38:50;;;;;;;7.45;3.08;;;;;;;;;;4880986;29;20394;-81
2021/05/05 00:41:18;;;;;;;5.07;2.97;;;;;;;;;;4880904;29;20033;-82
2021/05/05 00:43:44;;;;;;;8.18;2.88;;;;;;;;;;4882103;29;20446;-81
2021/05/05 00:46:10;;;;;;;10.30;2.90;;;;;;;;;;4880791;29;20582;-82
2021/05/05 00:48:36;;;;;;;6.32;3.03;;;;;;;;;;4880556;29;20033;-81
2021/05/05 00:51:03;;;;;;;5.50;2.75;;;;;;;;;;4880039;29;20033;-81
2021/05/05 00:53:29;;;;;;;6.57;3.40;;;;;;;;;;4881901;29;20036;-81
2021/05/05 00:55:55;;;;;;;6.93;3.20;;;;;;;;;;4880718;29;20065;-81
2021/05/05 00:58:21;;;;;;;6.22;2.92;;;;;;;;;;4880768;29;20037;-81
2021/05/05 01:00:49;;;;;;;6.22;2.88;;;;;;;;;;4880621;29;20483;-82
2021/05/05 01:03:15;;;;;;;8.07;3.40;;;;;;;;;;4880999;29;20033;-80
2021/05/05 01:05:41;;;;;;;8.52;3.33;;;;;;;;;;4879338;29;20037;-81
2021/05/05 01:08:08;;;;;;;6.80;3.08;;;;;;;;;;4880611;29;20032;-81
2021/05/05 01:10:34;;;;;;;5.55;2.72;;;;;;;;;;4880350;29;20068;-81
2021/05/05 01:13:01;;;;;;;13.25;2.95;;;;;;;;;;4880496;29;20112;-81
2021/05/05 01:15:27;;;;;;;7.88;3.22;;;;;;;;;;4880312;29;20021;-81
2021/05/05 01:17:53;;;;;;;10.02;3.45;;;;;;;;;;4880293;29;20029;-81
2021/05/05 01:20:19;;;;;;;7.45;3.10;;;;;;;;;;4879703;29;20044;-80
2021/05/05 01:22:45;;;;;;;6.93;3.03;;;;;;;;;;4880409;29;20183;-81
2021/05/05 01:25:13;;;;;;;5.75;3.22;;;;;;;;;;4880767;29;20048;-81
2021/05/05 01:27:42;;;;;;;10.32;3.05;;;;;;;;;;4881024;29;20494;-81
2021/05/05 01:30:09;;;;;;;5.95;2.85;;;;;;;;;;4879600;29;20513;-79
2021/05/05 01:32:36;;;;;;;5.82;3.00;;;;;;;;;;4878896;29;20427;-81
2021/05/05 01:35:04;;;;;;;8.35;3.10;;;;;;;;;;4879295;29;20033;-80
2021/05/05 01:37:30;;;;;;;7.80;3.28;;;;;;;;;;4879714;29;20032;-81
2021/05/05 01:39:56;;;;;;;6.47;3.40;;;;;;;;;;4879918;29;20157;-81
2021/05/05 01:42:22;;;;;;;6.75;3.53;;;;;;;;;;4880180;29;20032;-79
2021/05/05 01:44:49;;;;;;;9.20;3.75;;;;;;;;;;4880035;29;20463;-80
2021/05/05 01:47:15;;;;;;;8.60;3.67;;;;;;;;;;4881507;29;20112;-80
2021/05/05 01:49:43;;;;;;;9.25;3.58;;;;;;;;;;4881141;29;20033;-82
2021/05/05 01:52:09;;;;;;;5.07;2.95;;;;;;;;;;4880930;29;20427;-81
2021/05/05 01:54:36;;;;;;;6.32;3.55;;;;;;;;;;4879772;29;20120;-81
2021/05/05 01:57:20;;;;;;;7.07;3.40;;;;;;;;;;4881280;29;20056;-80
2021/05/05 01:59:48;;;;;;;9.88;3.40;;;;;;;;;;4881181;29;20029;-81
2021/05/05 02:02:14;;;;;;;14.02;3.95;;;;;;;;;;4879892;29;20033;-80
2021/05/05 02:04:40;;;;;;;8.98;3.63;;;;;;;;;;4881161;29;20043;-80
2021/05/05 02:07:07;;;;;;;6.95;3.33;;;;;;;;;;4881077;29;20033;-80
2021/05/05 02:09:33;;;;;;;7.43;3.15;;;;;;;;;;4880660;29;20030;-79
2021/05/05 02:12:01;;;;;;;7.43;3.10;;;;;;;;;;4879077;29;20124;-80
2021/05/05 02:14:27;;;;;;;6.72;3.15;;;;;;;;;;4879928;29;20395;-82
2021/05/05 02:16:57;;;;;;;6.53;2.75;;;;;;;;;;4879921;29;20037;-82
2021/05/05 02:19:23;;;;;;;9.27;4.13;;;;;;;;;;4879914;29;20036;-79
2021/05/05 02:21:50;;;;;;;6.72;3.17;;;;;;;;;;4879605;29;20040;-81
2021/05/05 02:24:16;;;;;;;6.03;3.55;;;;;;;;;;4879649;29;20036;-80
2021/05/05 02:26:42;;;;;;;9.60;3.58;;;;;;;;;;4881139;29;20147;-80
2021/05/05 02:29:09;;;;;;;6.70;3.15;;;;;;;;;;4881135;29;20045;-81
2021/05/05 02:31:35;;;;;;;5.78;3.38;;;;;;;;;;4879239;29;20120;-81
2021/05/05 02:34:01;;;;;;;6.82;3.20;;;;;;;;;;4878808;29;20033;-81
2021/05/05 02:36:31;;;;;;;12.38;3.92;;;;;;;;;;4879582;29;20063;-81
2021/05/05 02:38:58;;;;;;;7.72;3.53;;;;;;;;;;4879427;29;20060;-81
2021/05/05 02:41:24;;;;;;;6.13;2.90;;;;;;;;;;4880689;29;20041;-81
2021/05/05 02:43:51;;;;;;;6.93;3.40;;;;;;;;;;4880126;29;20483;-82
2021/05/05 02:46:17;;;;;;;7.88;3.53;;;;;;;;;;4883094;29;20044;-81
2021/05/05 02:48:43;;;;;;;7.45;3.20;;;;;;;;;;4884502;29;20029;-81
2021/05/05 02:51:10;;;;;;;5.57;2.95;;;;;;;;;;4884730;29;20029;-82
2021/05/05 02:53:36;;;;;;;5.60;3.13;;;;;;;;;;4883218;29;20033;-82
2021/05/05 02:56:03;;;;;;;6.88;3.20;;;;;;;;;;4883100;29;20033;-81
2021/05/05 02:58:29;;;;;;;6.65;3.47;;;;;;;;;;4882305;29;20372;-82
2021/05/05 03:00:55;;;;;;;6.72;3.10;;;;;;;;;;4883316;29;20475;-82
2021/05/05 03:03:21;;;;;;;6.18;3.33;;;;;;;;;;4882316;29;20124;-81
2021/05/05 03:05:47;;;;;;;11.55;3.05;;;;;;;;;;4883685;29;20052;-82
2021/05/05 03:08:16;;;;;;;6.47;3.00;;;;;;;;;;4882743;29;20028;-81
2021/05/05 03:10:42;;;;;;;6.32;3.33;;;;;;;;;;4882416;29;20024;-81
2021/05/05 03:13:09;;;;;;;6.85;2.97;;;;;;;;;;4883702;29;20025;-80
2021/05/05 03:15:35;;;;;;;11.25;3.58;;;;;;;;;;4884086;29;20052;-82
2021/05/05 03:18:01;;;;;;;9.32;3.42;;;;;;;;;;4883560;29;20035;-81
2021/05/05 03:20:28;;;;;;;6.28;3.03;;;;;;;;;;4883695;29;20112;-80
2021/05/05 03:22:54;;;;;;;11.93;3.90;;;;;;;;;;4883845;29;20025;-81
2021/05/05 03:25:20;;;;;;;6.05;3.10;;;;;;;;;;4882221;29;20037;-80
2021/05/05 03:27:46;;;;;;;7.15;3.40;;;;;;;;;;4883096;29;20486;-82
2021/05/05 03:30:13;;;;;;;7.32;3.08;;;;;;;;;;4882399;29;20132;-81
2021/05/05 03:32:39;;;;;;;5.78;3.17;;;;;;;;;;4883928;29;20455;-80
2021/05/05 03:35:06;;;;;;;5.90;3.47;;;;;;;;;;4883431;29;20033;-82
2021/05/05 03:37:32;;;;;;;8.02;3.45;;;;;;;;;;4881969;29;20037;-82
2021/05/05 03:39:58;;;;;;;11.10;3.20;;;;;;;;;;4881987;29;20032;-80
2021/05/05 03:42:24;;;;;;;7.97;3.70;;;;;;;;;;4882609;29;20155;-79
2021/05/05 03:44:51;;;;;;;7.53;3.35;;;;;;;;;;4881736;29;20067;-81
2021/05/05 03:47:17;;;;;;;9.98;3.45;;;;;;;;;;4883469;29;20037;-81
2021/05/05 03:49:43;;;;;;;6.53;3.30;;;;;;;;;;4883570;29;20451;-81
2021/05/05 03:52:09;;;;;;;6.63;3.35;;;;;;;;;;4881698;29;20084;-81
2021/05/05 03:54:36;;;;;;;6.22;3.50;;;;;;;;;;4882622;29;20029;-81
2021/05/05 03:57:03;;;;;;;5.70;3.13;;;;;;;;;;4881426;29;20112;-81
2021/05/05 03:59:29;;;;;;;7.95;3.42;;;;;;;;;;4882028;29;20475;-81
2021/05/05 04:01:55;;;;;;;12.35;3.95;;;;;;;;;;4883292;29;20029;-81
2021/05/05 04:04:22;;;;;;;6.45;3.05;;;;;;;;;;4882837;29;20056;-81
2021/05/05 04:06:48;;;;;;;7.28;3.33;;;;;;;;;;4882822;29;20029;-81
2021/05/05 04:09:14;;;;;;;5.28;2.83;;;;;;;;;;4881706;29;20036;-81
2021/05/05 04:11:40;;;;;;;7.78;3.05;;;;;;;;;;4881479;29;20414;-79
2021/05/05 04:14:07;;;;;;;8.05;3.83;;;;;;;;;;4882120;29;20028;-80
2021/05/05 04:16:34;;;;;;;6.20;3.33;;;;;;;;;;4881484;29;20142;-81
2021/05/05 04:19:00;;;;;;;6.05;3.22;;;;;;;;;;4883488;29;20025;-80
2021/05/05 04:21:26;;;;;;;6.55;2.85;;;;;;;;;;4882469;29;20047;-81
2021/05/05 04:23:52;;;;;;;13.27;3.50;;;;;;;;;;4881273;29;20057;-80
2021/05/05 04:26:19;;;;;;;8.65;3.78;;;;;;;;;;4882267;29;20063;-81
2021/05/05 04:28:45;;;;;;;6.80;3.30;;;;;;;;;;4880290;29;20045;-82
2021/05/05 04:31:11;;;;;;;8.15;3.55;;;;;;;;;;4882555;29;20490;-81
2021/05/05 04:33:39;;;;;;;6.45;3.53;;;;;;;;;;4881275;29;20033;-82
2021/05/05 04:36:05;;;;;;;8.77;3.58;;;;;;;;;;4881065;29;20032;-80
2021/05/05 04:38:32;;;;;;;6.63;2.78;;;;;;;;;;4882285;29;20084;-81
2021/05/05 04:40:58;;;;;;;6.63;3.30;;;;;;;;;;4882557;29;20029;-82
2021/05/05 04:43:24;;;;;;;6.63;3.25;;;;;;;;;;4882359;29;20029;-81
2021/05/05 04:45:50;;;;;;;7.28;2.83;;;;;;;;;;4880998;29;20033;-82
2021/05/05 04:48:17;;;;;;;4.97;2.88;;;;;;;;;;4882437;29;20032;-81
2021/05/05 04:50:43;;;;;;;5.93;3.13;;;;;;;;;;4881269;29;20164;-81
2021/05/05 04:53:09;;;;;;;5.82;2.70;;;;;;;;;;4881119;29;20009;-81
2021/05/05 04:55:35;;;;;;;6.88;2.58;;;;;;;;;;4880510;29;20123;-81
2021/05/05 04:58:01;;;;;;;4.93;2.65;;;;;;;;;;4879893;29;20021;-82
2021/05/05 05:00:27;;;;;;;4.07;2.50;;;;;;;;;;4881068;29;20062;-81
2021/05/05 05:02:53;;;;;;;4.70;2.30;;;;;;;;;;4880556;29;20025;-81
2021/05/05 05:05:22;;;;;;;4.93;2.67;;;;;;;;;;4880591;29;20120;-82
2021/05/05 05:07:48;;;;;;;4.25;2.30;;;;;;;;;;4877676;29;20013;-82
2021/05/05 05:10:15;;;;;;;3.47;2.33;;;;;;;;;;4882538;29;20054;-82
2021/05/05 05:12:41;;;;;;;7.00;2.45;;;;;;;;;;4881077;29;20117;-82
2021/05/05 05:15:07;;;;;;;5.00;2.47;;;;;;;;;;4881131;29;20363;-82
2021/05/05 05:17:33;;;;;;;4.28;2.55;;;;;;;;;;4881248;29;20033;-82
2021/05/05 05:19:59;;;;;;;4.78;2.63;;;;;;;;;;4880896;29;20045;-81
2021/05/05 05:22:25;;;;;;;7.30;2.75;;;;;;;;;;4880309;29;20025;-79
2021/05/05 05:24:52;;;;;;;5.88;2.40;;;;;;;;;;4884670;29;20581;-82
2021/05/05 05:27:18;;;;;;;7.03;2.38;;;;;;;;;;4886940;29;20032;-83
2021/05/05 05:29:44;;;;;;;6.30;2.45;;;;;;;;;;4879667;29;20127;-81
2021/05/05 05:32:10;;;;;;;8.00;3.05;;;;;;;;;;4879115;29;20390;-82
2021/05/05 05:34:36;;;;;;;4.70;2.83;;;;;;;;;;4879662;29;20505;-81
2021/05/05 05:37:03;;;;;;;4.03;2.28;;;;;;;;;;4879787;29;20029;-81
2021/05/05 05:39:29;;;;;;;5.22;2.55;;;;;;;;;;4878738;29;20033;-81
2021/05/05 05:41:55;;;;;;;5.63;2.45;;;;;;;;;;4879366;29;20483;-81
2021/05/05 05:44:21;;;;;;;8.15;2.92;;;;;;;;;;4878912;29;20029;-84
2021/05/05 05:46:47;;;;;;;11.65;2.90;;;;;;;;;;4879752;29;20092;-83
2021/05/05 05:49:13;;;;;;;4.88;2.05;;;;;;;;;;4879109;29;20121;-81
2021/05/05 05:51:39;;;;;;;6.53;2.67;;;;;;;;;;4879530;29;20033;-85
2021/05/05 05:54:06;;;;;;;6.88;2.47;;;;;;;;;;4880426;29;20029;-83
2021/05/05 05:56:32;;;;;;;4.45;2.45;;;;;;;;;;4880520;29;20044;-82
2021/05/05 05:58:59;;;;;;;4.82;2.63;;;;;;;;;;4880402;29;20538;-82
2021/05/05 06:01:25;;;;;;;4.07;2.10;;;;;;;;;;4879768;29;20116;-82
2021/05/05 06:03:51;;;;;;;4.82;2.50;;;;;;;;;;4879481;29;20056;-83
2021/05/05 06:06:17;;;;;;;7.28;2.65;;;;;;;;;;4880548;29;20534;-84
2021/05/05 06:08:43;;;;;;;7.22;2.50;;;;;;;;;;4879144;29;20031;-81
2021/05/05 06:11:09;;;;;;;5.40;2.25;;;;;;;;;;4880488;29;20033;-82
2021/05/05 06:13:35;;;;;;;5.70;2.65;;;;;;;;;;4878801;29;20037;-82
2021/05/05 06:16:02;;;;;;;4.95;2.28;;;;;;;;;;4880370;29;20546;-81
2021/05/05 06:18:28;;;;;;;3.90;1.88;;;;;;;;;;4881534;29;20428;-80
2021/05/05 06:20:54;;;;;;;7.50;2.90;;;;;;;;;;4884276;29;20382;-83
2021/05/05 06:23:21;;;;;;;6.05;2.20;;;;;;;;;;4882883;29;20503;-84
2021/05/05 06:25:47;;;;;;;4.75;2.10;;;;;;;;;;4883507;29;20033;-82
2021/05/05 06:28:13;;;;;;;3.50;2.00;;;;;;;;;;4882154;29;20063;-77
2021/05/05 06:30:39;;;;;;;5.65;2.03;;;;;;;;;;4883417;29;20081;-83
2021/05/05 06:33:05;;;;;;;3.53;1.92;;;;;;;;;;4883120;29;20394;-84
2021/05/05 06:35:31;;;;;;;4.72;1.80;;;;;;;;;;4882920;29;20059;-84
2021/05/05 06:37:58;;;;;;;4.40;1.98;;;;;;;;;;4882770;29;20478;-87
2021/05/05 06:40:24;;;;;;;5.85;2.30;;;;;;;;;;4882858;29;20021;-81
2021/05/05 06:42:50;;;;;;;4.43;1.95;;;;;;;;;;4883114;29;20398;-84
2021/05/05 06:45:20;;;;;;;6.38;2.10;;;;;;;;;;4884558;29;20112;-85
2021/05/05 06:47:49;;;;;;;4.82;1.65;;;;;;;;;;4883541;29;20491;-83
2021/05/05 06:50:16;;;;;;;3.45;1.80;;;;;;;;;;4882695;29;20075;-82
2021/05/05 06:52:42;;;;;;;4.55;1.70;;;;;;;;;;4883097;29;20056;-85
2021/05/05 06:55:09;;;;;;;4.15;1.83;;;;;;;;;;4881922;29;20081;-85
2021/05/05 06:57:36;;;;;;;4.32;1.70;;;;;;;;;;4882057;29;20032;-84
2021/05/05 07:00:03;;;;;;;3.10;1.77;;;;;;;;;;4882320;29;20064;-84
2021/05/05 07:02:29;;;;;;;7.43;1.92;;;;;;;;;;4882731;29;20037;-85
2021/05/05 07:04:55;;;;;;;3.45;1.58;;;;;;;;;;4882952;29;20474;-82
2021/05/05 07:07:21;;;;;;;4.65;2.05;;;;;;;;;;4882550;29;20029;-81
2021/05/05 07:09:49;;;;;;;5.35;2.33;;;;;;;;;;4883206;29;20040;-84
2021/05/05 07:12:15;;;;;;;32.85;4.28;;;;;;;;;;4884206;29;20033;-84
2021/05/05 07:14:41;;;;;;;4.68;1.90;;;;;;;;;;4904777;29;20023;-80
2021/05/05 07:17:07;;;;;;;8.57;1.90;;;;;;;;;;4894219;29;20041;-87
2021/05/05 07:19:34;;;;;;;2.42;1.50;;;;;;;;;;4883103;29;20541;-92
2021/05/05 07:22:00;;;;;;;4.75;1.80;;;;;;;;;;4882819;29;20029;-85
2021/05/05 07:24:26;;;;;;;6.78;1.80;;;;;;;;;;4882622;29;20037;-84
2021/05/05 07:26:52;;;;;;;4.35;1.90;;;;;;;;;;4882986;29;20075;-83
2021/05/05 07:29:18;;;;;;;8.20;2.00;;;;;;;;;;4880944;29;20165;-84
2021/05/05 07:31:44;;;;;;;5.18;2.20;;;;;;;;;;4882291;29;20025;-85
2021/05/05 07:34:11;;;;;;;4.65;1.85;;;;;;;;;;4882258;29;20025;-83
2021/05/05 07:36:42;;;;;;;5.28;2.03;;;;;;;;;;4884771;29;20033;-88
2021/05/05 07:47:23;;;;;;;5.35;2.00;;;;;;;;;;4883181;29;20165;-90
2021/05/05 07:49:51;;;;;;;3.72;1.88;;;;;;;;;;4882582;29;20029;-89
2021/05/05 07:52:18;;;;;;;3.20;1.73;;;;;;;;;;4882990;29;20029;-82
2021/05/05 07:54:44;;;;;;;4.78;2.00;;;;;;;;;;4881783;29;20031;-90
2021/05/05 07:57:11;;;;;;;4.32;1.85;;;;;;;;;;4882730;29;20152;-89
2021/05/05 07:59:37;;;;;;;5.22;1.90;;;;;;;;;;4882544;29;20037;-90
2021/05/05 08:02:04;;;;;;;4.93;1.88;;;;;;;;;;4881787;29;20060;-90
2021/05/05 08:04:30;;;;;;;4.40;1.90;;;;;;;;;;4881777;29;20040;-91
2021/05/05 08:06:56;;;;;;;6.78;1.98;;;;;;;;;;4881699;29;20028;-83
2021/05/05 08:09:24;;;;;;;6.00;1.83;;;;;;;;;;4880686;29;20033;-90
2021/05/05 08:11:50;;;;;;;4.15;1.70;;;;;;;;;;4880909;29;20033;-90
2021/05/05 08:14:17;;;;;;;8.50;2.00;;;;;;;;;;4881360;29;20029;-83
2021/05/05 08:16:43;;;;;;;4.43;1.80;;;;;;;;;;4881521;29;20084;-87
2021/05/05 08:19:09;;;;;;;4.38;1.90;;;;;;;;;;4880868;29;20069;-91
2021/05/05 08:21:35;;;;;;;3.42;1.90;;;;;;;;;;4881540;29;20434;-89
2021/05/05 08:24:02;;;;;;;4.30;2.15;;;;;;;;;;4882580;29;20021;-87
2021/05/05 08:26:30;;;;;;;4.55;2.20;;;;;;;;;;4880554;29;20052;-87
2021/05/05 08:28:56;;;;;;;4.82;2.17;;;;;;;;;;4880402;29;20052;-88
2021/05/05 08:31:22;;;;;;;4.03;2.00;;;;;;;;;;4881242;29;20032;-89
2021/05/05 08:33:48;;;;;;;4.10;2.33;;;;;;;;;;4882584;29;20391;-89
2021/05/05 08:36:14;;;;;;;4.47;2.28;;;;;;;;;;4880362;29;20081;-89
2021/05/05 08:38:41;;;;;;;4.88;2.00;;;;;;;;;;4882730;29;20368;-90
2021/05/05 08:41:09;;;;;;;6.47;2.15;;;;;;;;;;4880800;29;20384;-88
2021/05/05 08:43:35;;;;;;;4.07;2.10;;;;;;;;;;4880506;29;20053;-91
2021/05/05 08:46:02;;;;;;;4.97;2.40;;;;;;;;;;4882122;29;20044;-90
2021/05/05 08:48:28;;;;;;;5.03;2.08;;;;;;;;;;4881347;29;20029;-89
2021/05/05 08:50:54;;;;;;;5.75;2.35;;;;;;;;;;4881883;29;20044;-90
2021/05/05 08:53:21;;;;;;;4.97;2.03;;;;;;;;;;4881238;29;20032;-90
2021/05/05 08:55:47;;;;;;;4.82;2.58;;;;;;;;;;4881188;29;20070;-80
2021/05/05 08:58:14;;;;;;;3.80;2.60;;;;;;;;;;4881838;29;20099;-90
2021/05/05 09:00:40;;;;;;;4.00;1.98;;;;;;;;;;4880551;29;20033;-89
2021/05/05 09:03:07;;;;;;;6.03;2.38;;;;;;;;;;4881479;29;20490;-91
2021/05/05 09:05:53;;;;;;;7.18;2.28;;;;;;;;;;4880947;29;20036;-87
2021/05/05 09:08:21;;;;;;;9.07;2.60;;;;;;;;;;4881276;29;20029;-90
2021/05/05 09:10:55;;;;;;;9.10;2.50;;;;;;;;;;4885388;29;20037;-85
2021/05/05 09:13:40;;;;;;;7.72;2.67;;;;;;;;;;4892447;29;20021;-85
2021/05/05 09:16:09;;;;;;;5.43;2.40;;;;;;;;;;4880826;29;20036;-81
2021/05/05 09:18:54;;;;;;;9.50;2.20;;;;;;;;;;4880913;29;20021;-80
2021/05/05 09:21:34;;;;;;;6.65;2.38;;;;;;;;;;4881297;29;20439;-85
2021/05/05 09:24:20;;;;;;;4.43;2.65;;;;;;;;;;4882029;29;20025;-80
2021/05/05 09:26:47;;;;;;;4.85;2.25;;;;;;;;;;4875279;29;20052;-84
2021/05/05 09:29:13;;;;;;;4.57;2.22;;;;;;;;;;4881617;29;20056;-89
2021/05/05 09:31:40;;;;;;;4.85;2.30;;;;;;;;;;4880765;29;20558;-84
2021/05/05 09:34:10;;;;;;;7.05;2.25;;;;;;;;;;4880074;29;20033;-84
2021/05/05 09:36:38;;;;;;;5.70;2.50;;;;;;;;;;4881569;29;20055;-89
2021/05/05 09:39:06;;;;;;;5.13;2.65;;;;;;;;;;4881534;29;20033;-83
2021/05/05 09:41:33;;;;;;;5.57;2.67;;;;;;;;;;4881470;29;20029;-90
2021/05/05 09:44:08;;;;;;;4.70;2.90;;;;;;;;;;4879805;29;20423;-90
2021/05/05 09:46:47;;;;;;;3.83;2.63;;;;;;;;;;4880853;29;20037;-91
2021/05/05 09:49:19;;;;;;;7.82;3.75;;;;;;;;;;4881041;29;20021;-90
2021/05/05 09:52:05;;;;;;;6.75;2.47;;;;;;;;;;4889896;29;20089;-91
2021/05/05 09:54:50;;;;;;;4.95;2.88;;;;;;;;;;4880592;29;20067;-90
2021/05/05 09:57:17;;;;;;;6.30;2.88;;;;;;;;;;4880635;29;20044;-89
2021/05/05 09:59:55;;;;;;;5.65;2.72;;;;;;;;;;4880473;29;20025;-90
2021/05/05 10:02:22;;;;;;;11.85;2.80;;;;;;;;;;4880378;29;20052;-92
2021/05/05 10:05:01;;;;;;;9.07;3.28;;;;;;;;;;4880370;29;20120;-91
2021/05/05 10:07:28;;;;;;;11.52;3.08;;;;;;;;;;4881439;29;20175;-88
2021/05/05 10:09:55;;;;;;;5.28;2.58;;;;;;;;;;4880546;29;20033;-86
2021/05/05 10:12:22;;;;;;;7.25;2.58;;;;;;;;;;4879898;29;20060;-89
2021/05/05 10:14:52;;;;;;;5.90;2.78;;;;;;;;;;4880930;29;20033;-86
2021/05/05 10:17:19;;;;;;;6.53;2.78;;;;;;;;;;4880287;29;20029;-88
2021/05/05 10:19:48;;;;;;;7.50;2.90;;;;;;;;;;4880102;29;20029;-85
2021/05/05 10:22:14;;;;;;;6.20;3.10;;;;;;;;;;4880343;29;20126;-89
2021/05/05 10:24:43;;;;;;;7.05;2.92;;;;;;;;;;4880531;29;20029;-84
2021/05/05 10:27:09;;;;;;;5.32;3.08;;;;;;;;;;4880841;29;20033;-89
2021/05/05 10:29:37;;;;;;;10.52;3.05;;;;;;;;;;4879933;29;20056;-89
2021/05/05 10:32:05;;;;;;;6.00;2.67;;;;;;;;;;4880480;29;20029;-88
2021/05/05 10:34:31;;;;;;;4.70;2.72;;;;;;;;;;4881281;29;20028;-88
2021/05/05 10:37:01;;;;;;;4.80;2.72;;;;;;;;;;4879825;29;20037;-89
2021/05/05 10:39:31;;;;;;;7.40;2.40;;;;;;;;;;4880023;29;20055;-83
2021/05/05 10:42:00;;;;;;;6.55;2.70;;;;;;;;;;4880396;29;20035;-89
2021/05/05 10:44:43;;;;;;;9.23;2.38;;;;;;;;;;4878950;29;20041;-90
2021/05/05 10:47:29;;;;;;;4.88;2.42;;;;;;;;;;4880153;29;20032;-90
2021/05/05 10:50:03;;;;;;;5.47;2.72;;;;;;;;;;4879001;29;20033;-87
2021/05/05 10:52:53;;;;;;;6.43;2.50;;;;;;;;;;4878970;29;20060;-89
2021/05/05 10:55:31;;;;;;;6.40;2.90;;;;;;;;;;4875605;29;20522;-88
2021/05/05 10:58:16;;;;;;;3.83;2.55;;;;;;;;;;4879809;29;20032;-89
2021/05/05 11:00:50;;;;;;;6.53;2.60;;;;;;;;;;4881436;29;20463;-84
2021/05/05 11:03:17;;;;;;;7.78;2.30;;;;;;;;;;4878738;29;20502;-89
2021/05/05 11:05:45;;;;;;;4.32;2.50;;;;;;;;;;4880851;29;20041;-85
2021/05/05 11:08:27;;;;;;;6.07;2.33;;;;;;;;;;4885076;29;20025;-83
2021/05/05 11:11:02;;;;;;;10.47;2.80;;;;;;;;;;4884267;29;20033;-86
2021/05/05 11:13:30;;;;;;;8.30;2.80;;;;;;;;;;4882745;29;20116;-85
2021/05/05 11:15:57;;;;;;;6.78;2.72;;;;;;;;;;4882250;29;20057;-81
2021/05/05 11:18:27;;;;;;;3.85;2.35;;;;;;;;;;4881946;29;20112;-88
2021/05/05 11:20:53;;;;;;;11.30;2.65;;;;;;;;;;4881768;29;20025;-84
2021/05/05 11:23:42;;;;;;;4.13;2.50;;;;;;;;;;4883599;29;20064;-80
2021/05/05 11:26:24;;;;;;;4.80;2.28;;;;;;;;;;4882707;29;20037;-87
2021/05/05 11:28:59;;;;;;;7.38;2.22;;;;;;;;;;4882761;29;20029;-89
2021/05/05 11:31:51;;;;;;;3.70;2.00;;;;;;;;;;4882803;29;20037;-86
2021/05/05 11:34:20;;;;;;;7.70;2.45;;;;;;;;;;4883866;29;20025;-87
2021/05/05 11:36:46;;;;;;;7.65;2.35;;;;;;;;;;4883606;29;20390;-82
2021/05/05 11:39:23;;;;;;;3.78;2.20;;;;;;;;;;4882181;29;20037;-86
2021/05/05 11:41:59;;;;;;;3.15;2.00;;;;;;;;;;4881879;29;20397;-80
2021/05/05 11:44:37;;;;;;;4.13;2.20;;;;;;;;;;4880836;29;20033;-85
2021/05/05 11:47:05;;;;;;;4.22;1.75;;;;;;;;;;4881413;29;20126;-85
2021/05/05 11:49:35;;;;;;;5.35;1.65;;;;;;;;;;4881440;29;20021;-85
2021/05/05 11:52:20;;;;;;;6.70;1.70;;;;;;;;;;4882117;29;20044;-77
2021/05/05 11:54:48;;;;;;;3.25;1.80;;;;;;;;;;4881409;29;20490;-85
2021/05/05 11:57:14;;;;;;;6.72;1.50;;;;;;;;;;4884032;29;20120;-85
2021/05/05 11:59:40;;;;;;;2.45;1.30;;;;;;;;;;4883104;29;20029;-80
2021/05/05 12:02:07;;;;;;;4.75;1.60;;;;;;;;;;4882701;29;20044;-87
2021/05/05 12:04:37;;;;;;;7.93;1.58;;;;;;;;;;4881682;29;20474;-89
2021/05/05 12:07:04;;;;;;;4.63;1.75;;;;;;;;;;4882217;29;20044;-83
2021/05/05 12:09:31;;;;;;;4.20;1.65;;;;;;;;;;4889387;29;20028;-83
2021/05/05 12:12:28;;;;;;;5.90;2.22;;;;;;;;;;4881807;29;20037;-83
2021/05/05 12:14:56;;;;;;;4.10;1.20;;;;;;;;;;4869132;29;20061;-82
2021/05/05 12:17:29;;;;;;;12.80;1.85;;;;;;;;;;4880183;29;20029;-82
2021/05/05 12:19:56;;;;;;;5.35;1.45;;;;;;;;;;4881419;29;20079;-83
2021/05/05 12:22:23;;;;;;;3.55;1.05;;;;;;;;;;4880811;29;20498;-82
2021/05/05 12:25:09;;;;;;;4.47;1.27;;;;;;;;;;4880791;29;20025;-84
2021/05/05 12:27:36;;;;;;;5.75;1.98;;;;;;;;;;4885619;29;20132;-86
2021/05/05 12:30:06;;;;;;;6.90;1.38;;;;;;;;;;4881501;29;20041;-84
2021/05/05 12:32:45;;;;;;;6.47;1.00;;;;;;;;;;4882269;29;20033;-84
2021/05/05 12:35:12;;;;;;;2.50;1.33;;;;;;;;;;4884202;29;20036;-83
2021/05/05 12:37:39;;;;;;;1.60;0.55;;;;;;;;;;4886351;29;20084;-83
2021/05/05 12:40:07;;;;;;;2.15;0.60;;;;;;;;;;4887710;29;20600;-83
2021/05/05 12:42:36;;;;;;;2.55;0.38;;;;;;;;;;4883729;29;20502;-84
2021/05/05 12:45:29;;;;;;;1.67;0.32;;;;;;;;;;4881569;29;20522;-83
2021/05/05 12:48:00;;;;;;;5.88;1.05;;;;;;;;;;4880001;29;20047;-83
2021/05/05 12:50:36;;;;;;;0.85;0.40;;;;;;;;;;4883848;29;20025;-84
2021/05/05 12:53:04;;;;;;;2.05;0.45;;;;;;;;;;4883346;29;20431;-83
2021/05/05 12:55:33;;;;;;;2.10;0.35;;;;;;;;;;4880799;29;20080;-82
2021/05/05 12:58:07;;;;;;;0.60;0.20;;;;;;;;;;4880415;29;20071;-82
2021/05/05 13:00:34;;;;;;;3.13;0.30;;;;;;;;;;4881616;29;20047;-82
2021/05/05 13:03:04;;;;;;;2.65;0.30;;;;;;;;;;4881477;29;20096;-82
2021/05/05 13:05:32;;;;;;;0.40;0.10;;;;;;;;;;4893582;29;20060;-82
2021/05/05 13:08:11;;;;;;;0.52;0.20;;;;;;;;;;4889024;29;20056;-84
2021/05/05 13:10:45;;;;;;;2.05;0.30;;;;;;;;;;4881376;29;20064;-84
2021/05/05 13:13:18;;;;;;;0.32;0.08;;;;;;;;;;4881582;29;20032;-87
2021/05/05 13:16:17;;;;;;;0.30;0.10;;;;;;;;;;4883240;29;20029;-85
2021/05/05 13:32:44;;;;;;;0.52;0.17;;;;;;;;;;4884588;29;20051;-82
2021/05/05 13:35:26;;;;;;;0.10;0.03;;;;;;;;;;4882839;29;20025;-84
2021/05/05 13:38:03;;;;;;;0.52;0.20;;;;;;;;;;4881527;29;20474;-82
2021/05/05 13:40:34;;;;;;;0.50;0.20;;;;;;;;;;4884576;29;20120;-84
2021/05/05 13:43:01;;;;;;;0.47;0.20;;;;;;;;;;4881471;29;20089;-85
2021/05/05 13:45:31;;;;;;;2.40;0.30;;;;;;;;;;4880997;29;20501;-83
2021/05/05 13:50:36;;;;;;;0.30;0.10;;;;;;;;;;4881611;29;20500;-86
2021/05/05 13:53:02;;;;;;;0.57;0.10;;;;;;;;;;4878950;29;20057;-88
2021/05/05 13:55:28;;;;;;;0.57;0.22;;;;;;;;;;4878484;29;20116;-86
2021/05/05 13:57:54;;;;;;;1.42;0.30;;;;;;;;;;4881013;29;20025;-86
2021/05/05 14:00:21;;;;;;;0.43;0.20;;;;;;;;;;4879936;29;20061;-86
2021/05/05 14:02:47;;;;;;;1.25;0.20;;;;;;;;;;4879649;29;20033;-85
2021/05/05 14:05:13;;;;;;;0.60;0.20;;;;;;;;;;4880100;29;20491;-82
2021/05/05 14:07:41;;;;;;;1.23;0.30;;;;;;;;;;4880093;29;20542;-86
2021/05/05 14:10:08;;;;;;;0.45;0.20;;;;;;;;;;4879548;29;20128;-86
2021/05/05 14:12:36;;;;;;;0.40;0.20;;;;;;;;;;4879576;29;20064;-85
2021/05/05 14:15:02;;;;;;;0.73;0.25;;;;;;;;;;4879864;29;20044;-86
2021/05/05 14:17:35;;;;;;;0.60;0.20;;;;;;;;;;4879912;29;20030;-85
2021/05/05 14:20:01;;;;;;;0.65;0.25;;;;;;;;;;4879987;29;20037;-84
2021/05/05 14:22:27;;;;;;;0.93;0.35;;;;;;;;;;4879934;29;20029;-82
2021/05/05 14:24:53;;;;;;;0.80;0.30;;;;;;;;;;4879769;29;20026;-86
2021/05/05 14:27:19;;;;;;;1.23;0.40;;;;;;;;;;4880871;29;20146;-85
2021/05/05 14:29:46;;;;;;;1.42;0.40;;;;;;;;;;4879481;29;20084;-82
2021/05/05 14:32:12;;;;;;;1.52;0.60;;;;;;;;;;4881147;29;20551;-81
2021/05/05 14:34:39;;;;;;;4.18;0.40;;;;;;;;;;4879737;29;20033;-86
2021/05/05 14:37:05;;;;;;;1.42;0.32;;;;;;;;;;4880901;29;20036;-83
2021/05/05 14:39:31;;;;;;;1.63;0.63;;;;;;;;;;4880944;29;20037;-86
2021/05/05 14:41:57;;;;;;;3.10;0.60;;;;;;;;;;4883785;29;20558;-84
2021/05/05 14:44:30;;;;;;;1.05;0.38;;;;;;;;;;4887228;29;20067;-85
2021/05/05 14:49:48;;;;;;;4.43;0.60;;;;;;;;;;4886800;29;20069;-81
2021/05/05 14:52:17;;;;;;;2.70;0.50;;;;;;;;;;4888961;29;20033;-87
2021/05/05 14:54:43;;;;;;;1.27;0.55;;;;;;;;;;4883336;29;20093;-86
2021/05/05 14:57:10;;;;;;;1.38;0.57;;;;;;;;;;4884195;29;20478;-84
2021/05/05 14:59:36;;;;;;;1.40;0.30;;;;;;;;;;4885881;29;20133;-87
2021/05/05 15:02:02;;;;;;;1.15;0.50;;;;;;;;;;4886696;29;20030;-89
2021/05/05 15:04:28;;;;;;;3.17;0.40;;;;;;;;;;4886151;29;20029;-82
2021/05/05 15:07:00;;;;;;;0.73;0.32;;;;;;;;;;4883174;29;20033;-82
2021/05/05 15:15:09;;;;;;;0.80;0.40;;;;;;;;;;4847628;29;20058;-86
2021/05/05 15:29:02;;;;;;;1.48;0.57;;;;;;;;;;4895564;29;20060;-86
2021/05/05 15:34:27;;;;;;;;;;;;;;;;;;4902929;29;19915;-89
2021/05/05 15:36:55;;;;;;;1.40;0.60;;;;;;;;;;4901405;29;20275;-88
2021/05/05 15:39:26;;;;;;;0.95;0.60;;;;;;;;;;4901259;29;20036;-91